createdAt,value
2023-02-16T00:00:20.644Z,30.58
2023-02-16T00:02:48.701Z,32.08
2023-02-16T00:05:34.217Z,35.55
2023-02-16T00:08:02.118Z,36.03
2023-02-16T00:10:35.455Z,33.22
2023-02-16T00:13:30.239Z,29.05
2023-02-16T00:15:57.675Z,34.55
2023-02-16T00:18:25.009Z,32.38
2023-02-16T00:20:52.376Z,29.23
2023-02-16T00:23:19.737Z,35.70
2023-02-16T00:25:47.246Z,38.30
2023-02-16T00:28:20.570Z,32.13
2023-02-16T00:30:50.158Z,31.90
2023-02-16T00:33:20.875Z,30.60
2023-02-16T00:35:48.839Z,31.40
2023-02-16T00:38:17.025Z,33.45
2023-02-16T00:40:44.560Z,30.27
2023-02-16T00:43:27.895Z,33.72
2023-02-16T00:45:56.430Z,31.88
2023-02-16T00:48:25.006Z,30.73
2023-02-16T00:50:53.979Z,34.22
2023-02-16T00:53:21.287Z,30.88
2023-02-16T00:55:48.657Z,28.50
2023-02-16T00:58:18.729Z,30.88
2023-02-16T01:01:16.619Z,31.58
2023-02-16T01:03:47.085Z,34.67
2023-02-16T01:06:32.668Z,29.85
2023-02-16T01:09:30.669Z,35.42
2023-02-16T01:11:58.518Z,32.22
2023-02-16T01:14:26.413Z,33.95
2023-02-16T01:16:53.812Z,29.42
2023-02-16T01:19:21.213Z,29.92
2023-02-16T01:21:48.622Z,27.42
2023-02-16T01:24:16.229Z,32.45
2023-02-16T01:26:48.553Z,32.33
2023-02-16T01:29:18.414Z,27.85
2023-02-16T01:31:46.362Z,32.13
2023-02-16T01:34:14.379Z,29.65
2023-02-16T01:36:46.795Z,27.02
2023-02-16T01:39:18.865Z,34.03
2023-02-16T01:42:13.119Z,32.25
2023-02-16T01:44:49.690Z,28.92
2023-02-16T01:47:35.581Z,33.60
2023-02-16T01:50:19.453Z,32.13
2023-02-16T01:53:15.951Z,33.45
2023-02-16T01:55:46.972Z,30.65
2023-02-16T01:58:40.929Z,29.38
2023-02-16T02:01:35.683Z,34.80
2023-02-16T02:04:34.821Z,28.20
2023-02-16T02:07:02.116Z,34.00
2023-02-16T02:09:40.566Z,35.30
2023-02-16T02:12:29.884Z,33.72
2023-02-16T02:14:57.320Z,32.53
2023-02-16T02:17:25.693Z,33.95
2023-02-16T02:19:56.017Z,34.53
2023-02-16T02:23:30.380Z,31.02
2023-02-16T02:26:16.158Z,34.17
2023-02-16T02:28:54.938Z,35.90
2023-02-16T02:31:41.697Z,31.73
2023-02-16T02:34:15.067Z,31.25
2023-02-16T02:36:50.715Z,34.17
2023-02-16T02:39:27.501Z,35.65
2023-02-16T02:42:05.865Z,32.28
2023-02-16T02:44:49.081Z,37.13
2023-02-16T02:47:16.779Z,34.42
2023-02-16T02:49:54.842Z,35.42
2023-02-16T02:52:22.692Z,38.15
2023-02-16T02:55:09.381Z,34.08
2023-02-16T02:58:06.412Z,33.40
2023-02-16T03:00:41.880Z,34.45
2023-02-16T03:03:15.588Z,34.50
2023-02-16T03:05:47.964Z,36.05
2023-02-16T03:08:18.862Z,34.95
2023-02-16T03:11:09.194Z,38.38
2023-02-16T03:13:39.710Z,42.42
2023-02-16T03:16:21.642Z,33.80
2023-02-16T03:19:07.434Z,38.85
2023-02-16T03:21:54.094Z,38.28
2023-02-16T03:24:46.123Z,35.45
2023-02-16T03:27:40.085Z,34.00
2023-02-16T03:30:10.095Z,40.70
2023-02-16T03:32:39.008Z,38.40
2023-02-16T03:35:07.041Z,37.60
2023-02-16T03:37:34.841Z,37.38
2023-02-16T03:40:21.123Z,34.25
2023-02-16T03:42:50.204Z,35.47
2023-02-16T03:45:21.203Z,34.97
2023-02-16T03:47:48.479Z,33.17
2023-02-16T03:50:16.132Z,36.25
2023-02-16T03:52:43.567Z,36.92
2023-02-16T03:55:10.888Z,36.72
2023-02-16T03:57:38.132Z,35.40
2023-02-16T04:00:06.039Z,32.63
2023-02-16T04:02:40.388Z,38.72
2023-02-16T04:05:07.871Z,36.70
2023-02-16T04:07:35.159Z,35.70
2023-02-16T04:10:02.469Z,32.70
2023-02-16T04:12:38.636Z,35.88
2023-02-16T04:15:12.750Z,38.67
2023-02-16T04:17:40.683Z,33.65
2023-02-16T04:20:11.124Z,35.78
2023-02-16T04:22:38.539Z,35.50
2023-02-16T04:25:06.445Z,32.90
2023-02-16T04:27:33.927Z,36.55
2023-02-16T04:30:01.331Z,33.28
2023-02-16T04:32:28.641Z,35.08
2023-02-16T04:34:55.911Z,36.45
2023-02-16T04:37:23.228Z,35.30
2023-02-16T04:39:50.540Z,33.75
2023-02-16T04:42:17.862Z,33.83
2023-02-16T04:44:45.298Z,34.33
2023-02-16T04:47:12.578Z,32.72
2023-02-16T04:49:39.853Z,31.60
2023-02-16T04:52:07.195Z,33.92
2023-02-16T04:54:34.514Z,33.75
2023-02-16T04:57:01.877Z,33.85
2023-02-16T04:59:29.189Z,33.63
2023-02-16T05:01:57.399Z,33.80
2023-02-16T05:04:26.431Z,31.75
2023-02-16T05:06:53.732Z,33.25
2023-02-16T05:09:21.022Z,30.13
2023-02-16T05:12:06.735Z,34.88
2023-02-16T05:14:41.906Z,34.67
2023-02-16T05:17:14.830Z,31.95
2023-02-16T05:19:43.897Z,33.60
2023-02-16T05:22:11.579Z,33.00
2023-02-16T05:24:39.174Z,34.05
2023-02-16T05:27:11.173Z,39.00
2023-02-16T05:29:38.482Z,35.05
2023-02-16T05:32:06.352Z,34.67
2023-02-16T05:34:33.651Z,33.92
2023-02-16T05:37:01.091Z,37.58
2023-02-16T05:39:28.610Z,36.78
2023-02-16T05:41:55.938Z,34.53
2023-02-16T05:44:23.360Z,35.63
2023-02-16T05:46:50.710Z,33.30
2023-02-16T05:49:18.174Z,33.33
2023-02-16T05:51:45.649Z,34.83
2023-02-16T05:54:17.442Z,36.88
2023-02-16T05:56:50.091Z,30.20
2023-02-16T05:59:17.594Z,31.15
2023-02-16T06:01:50.513Z,29.70
2023-02-16T06:04:19.768Z,34.15
2023-02-16T06:06:47.373Z,34.50
2023-02-16T06:09:14.935Z,31.17
2023-02-16T06:11:43.032Z,31.15
2023-02-16T06:14:18.464Z,33.97
2023-02-16T06:16:48.158Z,29.00
2023-02-16T06:19:17.144Z,34.83
2023-02-16T06:21:44.805Z,32.15
2023-02-16T06:24:13.358Z,32.97
2023-02-16T06:26:41.677Z,29.85
2023-02-16T06:29:09.773Z,34.03
2023-02-16T06:31:37.509Z,32.00
2023-02-16T06:34:05.680Z,33.08
2023-02-16T06:36:33.954Z,30.17
2023-02-16T06:39:01.350Z,33.33
2023-02-16T06:41:32.001Z,32.83
2023-02-16T06:44:00.656Z,35.13
2023-02-16T06:46:28.419Z,34.97
2023-02-16T06:48:56.061Z,30.45
2023-02-16T06:51:23.770Z,30.27
2023-02-16T06:53:51.421Z,28.80
2023-02-16T06:56:18.840Z,32.92
2023-02-16T06:58:46.037Z,31.42
2023-02-16T07:01:13.499Z,31.05
2023-02-16T07:03:41.059Z,28.10
2023-02-16T07:06:08.435Z,29.85
2023-02-16T07:08:36.037Z,27.55
2023-02-16T07:11:04.184Z,34.42
2023-02-16T07:13:31.778Z,30.10
2023-02-16T07:15:59.212Z,27.08
2023-02-16T07:18:26.584Z,29.23
2023-02-16T07:20:54.159Z,29.15
2023-02-16T07:23:21.596Z,28.67
2023-02-16T07:25:48.881Z,27.92
2023-02-16T07:28:16.518Z,31.90
2023-02-16T07:30:44.391Z,28.80
2023-02-16T07:33:11.641Z,28.92
2023-02-16T07:35:38.926Z,26.65
2023-02-16T07:38:06.703Z,28.77
2023-02-16T07:40:34.271Z,30.75
2023-02-16T07:43:04.006Z,28.35
2023-02-16T07:45:35.039Z,30.02
2023-02-16T07:48:02.924Z,25.40
2023-02-16T07:50:30.134Z,28.98
2023-02-16T07:52:57.405Z,27.30
2023-02-16T07:55:24.708Z,28.02
2023-02-16T07:57:55.347Z,25.73
2023-02-16T08:00:23.065Z,24.45
2023-02-16T08:02:50.436Z,25.30
2023-02-16T08:05:18.196Z,27.80
2023-02-16T08:07:46.708Z,25.75
2023-02-16T08:10:15.594Z,25.63
2023-02-16T08:12:43.382Z,26.08
2023-02-16T08:15:12.010Z,25.17
2023-02-16T08:17:39.537Z,22.48
2023-02-16T08:20:07.894Z,23.27
2023-02-16T08:22:35.918Z,22.33
2023-02-16T08:25:06.880Z,23.67
2023-02-16T08:27:35.712Z,26.95
2023-02-16T08:30:03.684Z,24.42
2023-02-16T08:32:31.178Z,21.85
2023-02-16T08:34:58.577Z,22.80
2023-02-16T08:37:26.137Z,23.13
2023-02-16T08:39:53.785Z,24.60
2023-02-16T08:42:21.287Z,22.80
2023-02-16T08:44:48.684Z,21.45
2023-02-16T08:47:18.346Z,21.15
2023-02-16T08:49:46.010Z,19.95
2023-02-16T08:52:13.883Z,21.42
2023-02-16T08:54:41.472Z,22.00
2023-02-16T08:57:09.321Z,24.17
2023-02-16T08:59:36.893Z,20.98
2023-02-16T09:02:04.703Z,22.17
2023-02-16T09:04:32.250Z,19.92
2023-02-16T09:06:59.989Z,21.45
2023-02-16T09:09:27.801Z,22.92
2023-02-16T09:11:55.314Z,21.52
2023-02-16T09:14:23.317Z,21.25
2023-02-16T09:16:51.314Z,22.70
2023-02-16T09:19:21.047Z,23.63
2023-02-16T09:21:50.606Z,20.00
2023-02-16T09:24:18.090Z,19.73
2023-02-16T09:26:45.650Z,21.50
2023-02-16T09:29:13.869Z,23.77
2023-02-16T09:31:42.472Z,23.52
2023-02-16T09:34:22.136Z,25.45
2023-02-16T09:36:50.533Z,24.65
2023-02-16T09:39:18.673Z,20.98
2023-02-16T09:42:04.937Z,23.17
2023-02-16T09:44:50.910Z,21.75
2023-02-16T09:47:24.079Z,24.02
2023-02-16T09:49:53.961Z,23.30
2023-02-16T09:52:36.009Z,21.63
2023-02-16T09:55:17.084Z,22.08
2023-02-16T09:57:55.971Z,24.45
2023-02-16T10:00:33.363Z,25.42
2023-02-16T10:03:20.864Z,24.73
2023-02-16T10:06:14.592Z,23.65
2023-02-16T10:08:46.873Z,21.65
2023-02-16T10:11:41.889Z,25.88
2023-02-16T10:14:30.995Z,22.98
2023-02-16T10:17:11.239Z,28.35
2023-02-16T10:19:48.909Z,23.60
2023-02-16T10:22:24.315Z,21.58
2023-02-16T10:25:14.567Z,26.50
2023-02-16T10:27:45.730Z,22.00
2023-02-16T10:30:19.101Z,25.73
2023-02-16T10:33:10.563Z,24.38
2023-02-16T10:35:49.169Z,22.50
2023-02-16T10:38:24.491Z,22.80
2023-02-16T10:41:00.836Z,24.60
2023-02-16T10:43:53.071Z,22.45
2023-02-16T10:46:26.542Z,26.20
2023-02-16T10:48:55.064Z,21.10
2023-02-16T10:51:28.189Z,22.13
2023-02-16T10:54:01.832Z,22.05
2023-02-16T10:56:49.680Z,21.77
2023-02-16T10:59:38.073Z,20.10
2023-02-16T11:02:41.666Z,21.95
2023-02-16T11:05:31.200Z,20.70
2023-02-16T11:08:03.306Z,20.73
2023-02-16T11:10:38.902Z,19.23
2023-02-16T11:13:07.919Z,20.77
2023-02-16T11:15:38.830Z,19.52
2023-02-16T11:18:36.281Z,19.35
2023-02-16T11:21:04.656Z,22.88
2023-02-16T11:23:40.973Z,19.95
2023-02-16T11:26:24.116Z,19.60
2023-02-16T11:28:51.923Z,21.52
2023-02-16T11:31:32.822Z,21.23
2023-02-16T11:34:27.844Z,21.05
2023-02-16T11:37:14.255Z,21.13
2023-02-16T11:39:49.584Z,22.90
2023-02-16T11:42:34.875Z,20.52
2023-02-16T11:45:04.913Z,21.33
2023-02-16T11:47:38.590Z,22.02
2023-02-16T11:50:20.828Z,23.15
2023-02-16T11:52:50.616Z,19.90
2023-02-16T11:55:34.182Z,21.20
2023-02-16T11:58:27.525Z,20.80
2023-02-16T12:01:12.985Z,21.33
2023-02-16T12:04:05.599Z,21.52
2023-02-16T12:06:48.001Z,20.00
2023-02-16T12:09:36.759Z,19.00
2023-02-16T12:12:20.974Z,19.20
2023-02-16T12:14:57.472Z,21.40
2023-02-16T12:17:49.336Z,19.38
2023-02-16T12:20:58.923Z,18.13
2023-02-16T12:23:44.951Z,19.63
2023-02-16T12:26:34.395Z,20.48
2023-02-16T12:29:21.062Z,26.92
2023-02-16T12:32:00.853Z,20.25
2023-02-16T12:34:54.028Z,22.42
2023-02-16T12:37:26.811Z,22.83
2023-02-16T12:40:28.783Z,23.95
2023-02-16T12:43:27.726Z,22.08
2023-02-16T12:45:57.939Z,21.80
2023-02-16T12:48:51.268Z,22.35
2023-02-16T12:51:29.342Z,21.30
2023-02-16T12:54:10.719Z,21.98
2023-02-16T12:57:06.255Z,24.10
2023-02-16T12:59:48.722Z,22.23
2023-02-16T13:02:42.509Z,22.38
2023-02-16T13:05:12.050Z,24.10
2023-02-16T13:07:43.016Z,21.88
2023-02-16T13:10:36.016Z,20.83
2023-02-16T13:13:11.935Z,22.50
2023-02-16T13:15:40.533Z,21.00
2023-02-16T13:18:24.352Z,21.38
2023-02-16T13:21:10.913Z,21.95
2023-02-16T13:23:50.582Z,20.58
2023-02-16T13:26:31.141Z,24.75
2023-02-16T13:29:36.057Z,20.80
2023-02-16T13:32:33.209Z,21.33
2023-02-16T13:35:35.005Z,23.52
2023-02-16T13:38:37.405Z,22.17
2023-02-16T13:41:29.506Z,25.35
2023-02-16T13:44:18.510Z,22.83
2023-02-16T13:46:52.426Z,24.27
2023-02-16T13:49:42.876Z,22.73
2023-02-16T13:52:27.444Z,22.50
2023-02-16T13:54:54.978Z,22.38
2023-02-16T13:57:51.456Z,21.30
2023-02-16T14:00:35.494Z,22.02
2023-02-16T14:03:05.692Z,21.67
2023-02-16T14:05:36.553Z,22.58
2023-02-16T14:08:16.735Z,22.08
2023-02-16T14:10:53.422Z,21.98
2023-02-16T14:13:29.168Z,21.65
2023-02-16T14:16:02.023Z,21.08
2023-02-16T14:18:46.906Z,22.42
2023-02-16T14:21:42.814Z,20.70
2023-02-16T14:24:25.089Z,21.42
2023-02-16T14:27:01.338Z,20.30
2023-02-16T14:29:51.805Z,20.35
2023-02-16T14:32:19.042Z,21.20
2023-02-16T14:35:03.558Z,24.50
2023-02-16T14:37:36.681Z,21.02
2023-02-16T14:40:39.903Z,21.83
2023-02-16T14:43:30.709Z,20.02
2023-02-16T14:46:29.145Z,19.58
2023-02-16T14:49:30.589Z,25.50
2023-02-16T14:52:12.983Z,20.80
2023-02-16T14:55:07.521Z,23.88
2023-02-16T14:57:57.619Z,21.03
2023-02-16T15:00:46.508Z,19.88
2023-02-16T15:03:18.752Z,21.67
2023-02-16T15:05:56.191Z,18.75
2023-02-16T15:08:34.701Z,21.50
2023-02-16T15:11:20.678Z,21.42
2023-02-16T15:13:52.432Z,20.60
2023-02-16T15:16:22.688Z,21.15
2023-02-16T15:18:53.567Z,20.35
2023-02-16T15:21:30.708Z,20.80
2023-02-16T15:24:00.570Z,22.27
2023-02-16T15:26:33.756Z,20.42
2023-02-16T15:29:16.561Z,20.73
2023-02-16T15:31:44.223Z,19.45
2023-02-16T15:34:15.142Z,20.60
2023-02-16T15:36:44.619Z,19.38
2023-02-16T15:39:38.518Z,17.88
2023-02-16T15:42:29.593Z,19.08
2023-02-16T15:44:57.009Z,18.42
2023-02-16T15:47:26.407Z,21.25
2023-02-16T15:49:54.999Z,17.45
2023-02-16T15:52:37.808Z,17.60
2023-02-16T15:55:09.107Z,16.13
2023-02-16T15:57:38.332Z,15.27
2023-02-16T16:00:20.946Z,16.23
2023-02-16T16:02:54.460Z,18.35
2023-02-16T16:05:25.073Z,16.95
2023-02-16T16:07:53.649Z,14.30
2023-02-16T16:10:40.970Z,13.02
2023-02-16T16:13:29.741Z,15.70
2023-02-16T16:16:04.549Z,17.30
2023-02-16T16:18:39.517Z,14.07
2023-02-16T16:24:04.239Z,15.50
2023-02-16T16:26:49.435Z,13.48
2023-02-16T16:29:41.274Z,12.80
2023-02-16T16:32:20.107Z,15.02
2023-02-16T16:34:48.136Z,16.25
2023-02-16T16:37:36.720Z,15.38
2023-02-16T16:40:19.746Z,15.05
2023-02-16T16:43:02.462Z,13.32
2023-02-16T16:45:40.798Z,15.77
2023-02-16T16:48:13.862Z,13.57
2023-02-16T16:50:42.379Z,15.45
2023-02-16T16:53:31.647Z,13.02
2023-02-16T16:56:01.203Z,15.88
2023-02-16T16:58:29.363Z,13.93
2023-02-16T17:00:56.636Z,13.52
2023-02-16T17:03:24.041Z,13.43
2023-02-16T17:05:51.429Z,15.77
2023-02-16T17:08:18.751Z,11.60
2023-02-16T17:10:46.115Z,11.73
2023-02-16T17:13:17.956Z,12.63
2023-02-16T17:15:56.788Z,13.60
2023-02-16T17:18:24.053Z,15.65
2023-02-16T17:20:51.577Z,18.48
2023-02-16T17:23:21.597Z,12.90
2023-02-16T17:25:49.626Z,14.70
2023-02-16T17:28:18.393Z,12.90
2023-02-16T17:30:45.756Z,13.93
2023-02-16T17:33:13.037Z,12.20
2023-02-16T17:35:42.264Z,12.80
2023-02-16T17:38:27.859Z,13.48
2023-02-16T17:40:56.740Z,12.95
2023-02-16T17:43:26.941Z,12.52
2023-02-16T17:45:56.677Z,11.48
2023-02-16T17:48:29.254Z,12.13
2023-02-16T17:50:59.745Z,12.13
2023-02-16T17:53:28.135Z,16.65
2023-02-16T17:55:57.706Z,12.52
2023-02-16T17:58:25.959Z,11.95
2023-02-16T18:00:53.452Z,14.57
2023-02-16T18:03:22.992Z,12.98
2023-02-16T18:05:50.766Z,11.15
2023-02-16T18:08:18.266Z,16.23
2023-02-16T18:10:48.528Z,12.18
2023-02-16T18:13:16.534Z,11.65
2023-02-16T18:15:47.381Z,11.70
2023-02-16T18:18:16.439Z,11.23
2023-02-16T18:20:44.489Z,13.68
2023-02-16T18:23:11.919Z,9.70
2023-02-16T18:25:41.391Z,10.75
2023-02-16T18:28:20.077Z,11.18
2023-02-16T18:30:49.152Z,12.77
2023-02-16T18:33:17.552Z,12.45
2023-02-16T18:35:44.837Z,9.90
2023-02-16T18:38:13.437Z,11.82
2023-02-16T18:40:45.318Z,12.48
2023-02-16T18:43:13.143Z,13.45
2023-02-16T18:45:41.699Z,10.77
2023-02-16T18:48:09.125Z,14.25
2023-02-16T18:50:36.437Z,12.50
2023-02-16T18:53:04.126Z,12.50
2023-02-16T18:55:33.000Z,12.57
2023-02-16T18:58:01.647Z,11.55
2023-02-16T19:00:29.511Z,11.30
2023-02-16T19:02:57.001Z,12.77
2023-02-16T19:05:24.992Z,10.77
2023-02-16T19:07:52.385Z,11.60
2023-02-16T19:10:19.738Z,14.30
2023-02-16T19:12:47.017Z,12.63
2023-02-16T19:15:14.316Z,11.73
2023-02-16T19:17:41.757Z,14.73
2023-02-16T19:20:11.593Z,11.05
2023-02-16T19:22:38.847Z,16.80
2023-02-16T19:25:07.064Z,15.43
2023-02-16T19:27:34.562Z,15.63
2023-02-16T19:30:01.911Z,12.02
2023-02-16T19:32:29.556Z,12.93
2023-02-16T19:34:56.980Z,15.57
2023-02-16T19:37:24.313Z,11.88
2023-02-16T19:39:51.756Z,13.80
2023-02-16T19:42:19.879Z,12.38
2023-02-16T19:44:47.140Z,12.90
2023-02-16T19:47:14.427Z,12.10
2023-02-16T19:49:42.557Z,14.57
2023-02-16T19:52:09.991Z,12.55
2023-02-16T19:54:37.356Z,11.90
2023-02-16T19:57:05.219Z,13.65
2023-02-16T19:59:32.810Z,18.33
2023-02-16T20:02:00.410Z,13.02
2023-02-16T20:04:28.175Z,13.38
2023-02-16T20:06:56.444Z,16.77
2023-02-16T20:09:24.683Z,16.45
2023-02-16T20:11:52.361Z,14.07
2023-02-16T20:14:19.677Z,12.60
2023-02-16T20:16:49.442Z,16.65
2023-02-16T20:19:16.824Z,15.57
2023-02-16T20:21:46.235Z,13.68
2023-02-16T20:24:14.857Z,12.80
2023-02-16T20:26:45.041Z,13.98
2023-02-16T20:29:14.900Z,15.77
2023-02-16T20:31:52.421Z,16.42
2023-02-16T20:34:20.352Z,13.82
2023-02-16T20:36:47.936Z,14.75
2023-02-16T20:39:15.623Z,15.60
2023-02-16T20:41:43.699Z,14.32
2023-02-16T20:44:12.116Z,18.15
2023-02-16T20:46:40.615Z,15.45
2023-02-16T20:49:09.084Z,15.23
2023-02-16T20:51:37.116Z,14.30
2023-02-16T20:54:05.430Z,14.43
2023-02-16T20:56:33.077Z,14.82
2023-02-16T20:59:01.385Z,19.83
2023-02-16T21:01:33.911Z,15.70
2023-02-16T21:04:01.326Z,16.98
2023-02-16T21:06:29.301Z,18.35
2023-02-16T21:08:56.962Z,16.10
2023-02-16T21:11:25.431Z,19.08
2023-02-16T21:13:53.360Z,17.35
2023-02-16T21:16:20.839Z,15.23
2023-02-16T21:18:48.207Z,16.30
2023-02-16T21:21:15.707Z,16.17
2023-02-16T21:23:45.402Z,17.25
2023-02-16T21:26:13.374Z,16.83
2023-02-16T21:28:41.121Z,15.48
2023-02-16T21:31:12.469Z,14.90
2023-02-16T21:33:40.602Z,18.05
2023-02-16T21:36:11.907Z,16.50
2023-02-16T21:38:40.323Z,16.17
2023-02-16T21:41:26.189Z,16.63
2023-02-16T21:44:02.158Z,17.92
2023-02-16T21:46:35.920Z,18.75
2023-02-16T21:49:07.574Z,16.83
2023-02-16T21:51:37.291Z,16.55
2023-02-16T21:54:09.531Z,17.63
2023-02-16T21:56:45.726Z,16.35
2023-02-16T21:59:15.485Z,18.45
2023-02-16T22:01:50.807Z,16.85
2023-02-16T22:04:22.614Z,15.77
2023-02-16T22:06:51.153Z,16.48
2023-02-16T22:09:21.778Z,19.77
2023-02-16T22:11:50.196Z,15.52
2023-02-16T22:14:18.024Z,15.75
2023-02-16T22:16:47.210Z,15.32
2023-02-16T22:19:16.595Z,16.05
2023-02-16T22:21:45.435Z,16.48
2023-02-16T22:24:14.836Z,16.02
2023-02-16T22:26:42.582Z,16.73
2023-02-16T22:29:10.857Z,16.15
2023-02-16T22:31:39.428Z,14.45
2023-02-16T22:34:11.518Z,16.73
2023-02-16T22:36:40.065Z,14.50
2023-02-16T22:39:07.746Z,16.52
2023-02-16T22:41:35.751Z,16.08
2023-02-16T22:44:03.277Z,15.93
2023-02-16T22:46:30.563Z,14.25
2023-02-16T22:48:59.273Z,18.10
2023-02-16T22:51:29.147Z,18.08
2023-02-16T22:53:59.041Z,15.18
2023-02-16T22:56:26.901Z,13.55
2023-02-16T22:58:57.493Z,15.68
2023-02-16T23:01:26.979Z,13.75
2023-02-16T23:03:57.342Z,13.63
2023-02-16T23:06:31.089Z,13.32
2023-02-16T23:09:01.627Z,14.45
2023-02-16T23:11:29.684Z,13.73
2023-02-16T23:13:57.230Z,12.63
2023-02-16T23:16:26.006Z,12.68
2023-02-16T23:18:55.385Z,12.48
2023-02-16T23:21:28.379Z,12.82
2023-02-16T23:23:56.197Z,12.90
2023-02-16T23:26:25.637Z,12.65
2023-02-16T23:28:54.739Z,13.88
2023-02-16T23:31:23.130Z,14.77
2023-02-16T23:33:50.848Z,13.15
2023-02-16T23:36:18.463Z,10.90
2023-02-16T23:38:45.737Z,13.45
2023-02-16T23:41:14.618Z,12.57
2023-02-16T23:43:42.479Z,14.27
2023-02-16T23:46:11.374Z,11.73
2023-02-16T23:48:38.960Z,12.23
2023-02-16T23:51:06.619Z,13.13
2023-02-16T23:53:34.147Z,11.48
2023-02-16T23:56:08.128Z,11.45
2023-02-16T23:58:41.829Z,11.25
